sensor_id;sensor_type;location;lat;lon;timestamp;P1;durP1;ratioP1;P2;durP2;ratioP2
48487;SDS011;34289;48.572;13.378;2022-12-10T00:01:17;31.73;;;22.13;;
48487;SDS011;34289;48.572;13.378;2022-12-10T00:03:44;38.67;;;24.73;;
48487;SDS011;34289;48.572;13.378;2022-12-10T00:06:12;31.67;;;22.42;;
48487;SDS011;34289;48.572;13.378;2022-12-10T00:08:39;34.35;;;22.15;;
48487;SDS011;34289;48.572;13.378;2022-12-10T00:11:06;35.25;;;21.10;;
48487;SDS011;34289;48.572;13.378;2022-12-10T00:13:33;29.95;;;19.73;;
48487;SDS011;34289;48.572;13.378;2022-12-10T00:16:00;31.80;;;22.00;;
48487;SDS011;34289;48.572;13.378;2022-12-10T00:18:27;36.38;;;22.45;;
48487;SDS011;34289;48.572;13.378;2022-12-10T00:20:53;30.10;;;20.65;;
48487;SDS011;34289;48.572;13.378;2022-12-10T00:23:19;34.78;;;23.40;;
48487;SDS011;34289;48.572;13.378;2022-12-10T00:25:45;31.38;;;22.48;;
48487;SDS011;34289;48.572;13.378;2022-12-10T00:28:10;33.95;;;21.92;;
48487;SDS011;34289;48.572;13.378;2022-12-10T00:30:36;28.77;;;19.65;;
48487;SDS011;34289;48.572;13.378;2022-12-10T00:33:02;33.72;;;21.35;;
48487;SDS011;34289;48.572;13.378;2022-12-10T00:35:27;28.30;;;21.45;;
48487;SDS011;34289;48.572;13.378;2022-12-10T00:37:53;34.55;;;22.92;;
48487;SDS011;34289;48.572;13.378;2022-12-10T00:40:19;34.13;;;23.42;;
48487;SDS011;34289;48.572;13.378;2022-12-10T00:42:45;34.25;;;23.02;;
48487;SDS011;34289;48.572;13.378;2022-12-10T00:45:11;33.72;;;22.92;;
48487;SDS011;34289;48.572;13.378;2022-12-10T00:47:36;31.35;;;21.67;;
48487;SDS011;34289;48.572;13.378;2022-12-10T00:50:02;31.05;;;22.02;;
48487;SDS011;34289;48.572;13.378;2022-12-10T00:52:28;33.40;;;22.75;;
48487;SDS011;34289;48.572;13.378;2022-12-10T00:54:53;36.03;;;22.48;;
48487;SDS011;34289;48.572;13.378;2022-12-10T00:57:19;34.97;;;22.73;;
48487;SDS011;34289;48.572;13.378;2022-12-10T00:59:44;38.22;;;21.77;;
48487;SDS011;34289;48.572;13.378;2022-12-10T01:02:10;35.95;;;23.48;;
48487;SDS011;34289;48.572;13.378;2022-12-10T01:04:36;34.10;;;23.75;;
48487;SDS011;34289;48.572;13.378;2022-12-10T01:07:01;30.98;;;20.92;;
48487;SDS011;34289;48.572;13.378;2022-12-10T01:09:27;31.42;;;22.13;;
48487;SDS011;34289;48.572;13.378;2022-12-10T01:11:54;29.35;;;20.35;;
48487;SDS011;34289;48.572;13.378;2022-12-10T01:14:26;34.47;;;22.42;;
48487;SDS011;34289;48.572;13.378;2022-12-10T01:16:54;37.42;;;24.13;;
48487;SDS011;34289;48.572;13.378;2022-12-10T01:19:21;33.55;;;21.92;;
48487;SDS011;34289;48.572;13.378;2022-12-10T01:21:51;34.55;;;23.48;;
48487;SDS011;34289;48.572;13.378;2022-12-10T01:24:18;35.78;;;25.40;;
48487;SDS011;34289;48.572;13.378;2022-12-10T01:26:44;33.25;;;23.30;;
48487;SDS011;34289;48.572;13.378;2022-12-10T01:29:10;34.28;;;23.30;;
48487;SDS011;34289;48.572;13.378;2022-12-10T01:31:37;35.70;;;23.13;;
48487;SDS011;34289;48.572;13.378;2022-12-10T01:34:04;33.03;;;22.35;;
48487;SDS011;34289;48.572;13.378;2022-12-10T01:36:32;33.67;;;22.38;;
48487;SDS011;34289;48.572;13.378;2022-12-10T01:39:00;30.55;;;20.27;;
48487;SDS011;34289;48.572;13.378;2022-12-10T01:41:30;31.27;;;20.88;;
48487;SDS011;34289;48.572;13.378;2022-12-10T01:43:59;34.95;;;22.63;;
48487;SDS011;34289;48.572;13.378;2022-12-10T01:46:26;32.40;;;21.02;;
48487;SDS011;34289;48.572;13.378;2022-12-10T01:48:57;36.50;;;24.10;;
48487;SDS011;34289;48.572;13.378;2022-12-10T01:51:24;33.55;;;22.48;;
48487;SDS011;34289;48.572;13.378;2022-12-10T01:53:52;36.13;;;22.85;;
48487;SDS011;34289;48.572;13.378;2022-12-10T01:56:19;36.38;;;24.52;;
48487;SDS011;34289;48.572;13.378;2022-12-10T01:58:45;37.05;;;23.42;;
48487;SDS011;34289;48.572;13.378;2022-12-10T02:04:06;40.88;;;25.67;;
48487;SDS011;34289;48.572;13.378;2022-12-10T02:06:45;38.70;;;25.83;;
48487;SDS011;34289;48.572;13.378;2022-12-10T02:19:59;34.25;;;23.48;;
48487;SDS011;34289;48.572;13.378;2022-12-10T02:22:40;39.60;;;23.95;;
48487;SDS011;34289;48.572;13.378;2022-12-10T02:25:11;37.50;;;24.80;;
48487;SDS011;34289;48.572;13.378;2022-12-10T02:30:07;40.38;;;26.05;;
48487;SDS011;34289;48.572;13.378;2022-12-10T02:32:35;39.13;;;25.73;;
48487;SDS011;34289;48.572;13.378;2022-12-10T02:35:10;33.67;;;23.52;;
48487;SDS011;34289;48.572;13.378;2022-12-10T02:37:57;38.63;;;24.83;;
48487;SDS011;34289;48.572;13.378;2022-12-10T02:40:31;38.13;;;25.55;;
48487;SDS011;34289;48.572;13.378;2022-12-10T02:42:58;34.22;;;23.08;;
48487;SDS011;34289;48.572;13.378;2022-12-10T02:45:24;36.97;;;24.60;;
48487;SDS011;34289;48.572;13.378;2022-12-10T02:47:54;37.00;;;25.63;;
48487;SDS011;34289;48.572;13.378;2022-12-10T02:50:23;38.75;;;25.75;;
48487;SDS011;34289;48.572;13.378;2022-12-10T02:52:49;45.75;;;27.20;;
48487;SDS011;34289;48.572;13.378;2022-12-10T02:55:15;38.30;;;24.77;;
48487;SDS011;34289;48.572;13.378;2022-12-10T03:02:52;35.28;;;24.50;;
48487;SDS011;34289;48.572;13.378;2022-12-10T03:05:25;36.03;;;23.52;;
48487;SDS011;34289;48.572;13.378;2022-12-10T03:08:10;34.75;;;23.55;;
48487;SDS011;34289;48.572;13.378;2022-12-10T03:10:52;36.40;;;23.83;;
48487;SDS011;34289;48.572;13.378;2022-12-10T03:13:36;35.28;;;23.55;;
48487;SDS011;34289;48.572;13.378;2022-12-10T03:16:23;34.72;;;22.05;;
48487;SDS011;34289;48.572;13.378;2022-12-10T03:18:52;30.58;;;20.88;;
48487;SDS011;34289;48.572;13.378;2022-12-10T03:21:22;32.65;;;21.65;;
48487;SDS011;34289;48.572;13.378;2022-12-10T03:23:48;32.08;;;21.23;;
48487;SDS011;34289;48.572;13.378;2022-12-10T03:26:16;30.33;;;21.25;;
48487;SDS011;34289;48.572;13.378;2022-12-10T03:28:49;35.45;;;22.95;;
48487;SDS011;34289;48.572;13.378;2022-12-10T03:31:18;37.10;;;23.08;;
48487;SDS011;34289;48.572;13.378;2022-12-10T03:33:45;36.70;;;24.52;;
48487;SDS011;34289;48.572;13.378;2022-12-10T03:36:12;33.45;;;22.58;;
48487;SDS011;34289;48.572;13.378;2022-12-10T03:38:38;33.47;;;22.30;;
48487;SDS011;34289;48.572;13.378;2022-12-10T03:41:05;37.20;;;24.27;;
48487;SDS011;34289;48.572;13.378;2022-12-10T03:43:31;34.70;;;21.67;;
48487;SDS011;34289;48.572;13.378;2022-12-10T03:45:57;33.78;;;21.63;;
48487;SDS011;34289;48.572;13.378;2022-12-10T03:48:23;35.55;;;22.40;;
48487;SDS011;34289;48.572;13.378;2022-12-10T03:50:48;31.27;;;22.73;;
48487;SDS011;34289;48.572;13.378;2022-12-10T03:53:14;33.28;;;22.00;;
48487;SDS011;34289;48.572;13.378;2022-12-10T03:55:40;37.17;;;23.58;;
48487;SDS011;34289;48.572;13.378;2022-12-10T03:58:05;34.85;;;22.60;;
48487;SDS011;34289;48.572;13.378;2022-12-10T04:00:31;38.15;;;21.95;;
48487;SDS011;34289;48.572;13.378;2022-12-10T04:02:56;34.28;;;22.90;;
48487;SDS011;34289;48.572;13.378;2022-12-10T04:05:22;33.20;;;21.35;;
48487;SDS011;34289;48.572;13.378;2022-12-10T04:07:48;39.13;;;23.83;;
48487;SDS011;34289;48.572;13.378;2022-12-10T04:10:13;38.40;;;23.90;;
48487;SDS011;34289;48.572;13.378;2022-12-10T04:12:39;36.83;;;24.23;;
48487;SDS011;34289;48.572;13.378;2022-12-10T04:15:05;38.00;;;24.60;;
48487;SDS011;34289;48.572;13.378;2022-12-10T04:17:50;36.55;;;23.85;;
48487;SDS011;34289;48.572;13.378;2022-12-10T04:20:15;39.17;;;25.70;;
48487;SDS011;34289;48.572;13.378;2022-12-10T04:22:59;42.40;;;25.10;;
48487;SDS011;34289;48.572;13.378;2022-12-10T04:25:44;40.15;;;24.58;;
48487;SDS011;34289;48.572;13.378;2022-12-10T04:28:28;40.72;;;25.88;;
48487;SDS011;34289;48.572;13.378;2022-12-10T04:30:54;33.63;;;22.88;;
48487;SDS011;34289;48.572;13.378;2022-12-10T04:33:19;34.78;;;22.80;;
48487;SDS011;34289;48.572;13.378;2022-12-10T04:35:45;34.63;;;21.58;;
48487;SDS011;34289;48.572;13.378;2022-12-10T04:38:10;44.35;;;23.33;;
48487;SDS011;34289;48.572;13.378;2022-12-10T04:40:36;40.40;;;23.70;;
48487;SDS011;34289;48.572;13.378;2022-12-10T04:43:02;38.33;;;24.48;;
48487;SDS011;34289;48.572;13.378;2022-12-10T04:45:27;37.50;;;24.63;;
48487;SDS011;34289;48.572;13.378;2022-12-10T04:47:53;37.15;;;23.80;;
48487;SDS011;34289;48.572;13.378;2022-12-10T04:50:18;39.85;;;25.05;;
48487;SDS011;34289;48.572;13.378;2022-12-10T04:52:44;35.60;;;22.88;;
48487;SDS011;34289;48.572;13.378;2022-12-10T04:55:09;40.63;;;23.88;;
48487;SDS011;34289;48.572;13.378;2022-12-10T04:57:35;38.42;;;24.27;;
48487;SDS011;34289;48.572;13.378;2022-12-10T05:00:01;36.67;;;24.05;;
48487;SDS011;34289;48.572;13.378;2022-12-10T05:02:27;35.53;;;23.63;;
48487;SDS011;34289;48.572;13.378;2022-12-10T05:04:53;39.95;;;24.45;;
48487;SDS011;34289;48.572;13.378;2022-12-10T05:07:19;41.92;;;25.90;;
48487;SDS011;34289;48.572;13.378;2022-12-10T05:09:44;37.40;;;23.65;;
48487;SDS011;34289;48.572;13.378;2022-12-10T05:12:10;36.30;;;24.05;;
48487;SDS011;34289;48.572;13.378;2022-12-10T05:14:35;37.45;;;22.05;;
48487;SDS011;34289;48.572;13.378;2022-12-10T05:17:01;35.78;;;22.63;;
48487;SDS011;34289;48.572;13.378;2022-12-10T05:19:27;35.35;;;22.48;;
48487;SDS011;34289;48.572;13.378;2022-12-10T05:21:52;37.85;;;23.73;;
48487;SDS011;34289;48.572;13.378;2022-12-10T05:24:37;35.50;;;22.83;;
48487;SDS011;34289;48.572;13.378;2022-12-10T05:27:03;36.67;;;25.27;;
48487;SDS011;34289;48.572;13.378;2022-12-10T05:29:29;37.00;;;24.17;;
48487;SDS011;34289;48.572;13.378;2022-12-10T05:31:55;36.95;;;22.95;;
48487;SDS011;34289;48.572;13.378;2022-12-10T05:34:20;40.00;;;25.63;;
48487;SDS011;34289;48.572;13.378;2022-12-10T05:36:46;40.47;;;25.05;;
48487;SDS011;34289;48.572;13.378;2022-12-10T05:39:12;38.05;;;24.73;;
48487;SDS011;34289;48.572;13.378;2022-12-10T05:41:38;33.80;;;23.50;;
48487;SDS011;34289;48.572;13.378;2022-12-10T05:44:05;37.25;;;23.13;;
48487;SDS011;34289;48.572;13.378;2022-12-10T05:46:33;36.05;;;23.15;;
48487;SDS011;34289;48.572;13.378;2022-12-10T05:49:00;38.30;;;23.13;;
48487;SDS011;34289;48.572;13.378;2022-12-10T05:51:28;43.80;;;24.85;;
48487;SDS011;34289;48.572;13.378;2022-12-10T05:53:56;43.53;;;25.70;;
48487;SDS011;34289;48.572;13.378;2022-12-10T05:56:23;41.42;;;25.40;;
48487;SDS011;34289;48.572;13.378;2022-12-10T05:58:50;45.97;;;25.30;;
48487;SDS011;34289;48.572;13.378;2022-12-10T06:01:19;40.08;;;25.30;;
48487;SDS011;34289;48.572;13.378;2022-12-10T06:03:46;39.92;;;25.45;;
48487;SDS011;34289;48.572;13.378;2022-12-10T06:06:12;36.47;;;23.92;;
48487;SDS011;34289;48.572;13.378;2022-12-10T06:08:39;36.83;;;23.75;;
48487;SDS011;34289;48.572;13.378;2022-12-10T06:11:07;33.67;;;23.50;;
48487;SDS011;34289;48.572;13.378;2022-12-10T06:13:34;38.03;;;24.67;;
48487;SDS011;34289;48.572;13.378;2022-12-10T06:16:03;36.08;;;23.13;;
48487;SDS011;34289;48.572;13.378;2022-12-10T06:18:30;39.10;;;24.10;;
48487;SDS011;34289;48.572;13.378;2022-12-10T06:20:56;36.58;;;24.45;;
48487;SDS011;34289;48.572;13.378;2022-12-10T06:23:21;34.53;;;23.20;;
48487;SDS011;34289;48.572;13.378;2022-12-10T06:25:47;39.20;;;25.13;;
48487;SDS011;34289;48.572;13.378;2022-12-10T06:28:13;36.10;;;25.90;;
48487;SDS011;34289;48.572;13.378;2022-12-10T06:30:38;36.95;;;24.65;;
48487;SDS011;34289;48.572;13.378;2022-12-10T06:33:04;42.50;;;25.42;;
48487;SDS011;34289;48.572;13.378;2022-12-10T06:35:29;38.50;;;26.35;;
48487;SDS011;34289;48.572;13.378;2022-12-10T06:37:58;36.83;;;23.75;;
48487;SDS011;34289;48.572;13.378;2022-12-10T06:40:24;37.15;;;25.25;;
48487;SDS011;34289;48.572;13.378;2022-12-10T06:42:52;38.58;;;26.13;;
48487;SDS011;34289;48.572;13.378;2022-12-10T06:45:18;41.72;;;26.80;;
48487;SDS011;34289;48.572;13.378;2022-12-10T06:47:43;41.53;;;24.85;;
48487;SDS011;34289;48.572;13.378;2022-12-10T06:50:09;45.90;;;27.63;;
48487;SDS011;34289;48.572;13.378;2022-12-10T06:52:35;37.88;;;24.00;;
48487;SDS011;34289;48.572;13.378;2022-12-10T06:55:00;39.42;;;25.05;;
48487;SDS011;34289;48.572;13.378;2022-12-10T06:57:26;39.65;;;25.25;;
48487;SDS011;34289;48.572;13.378;2022-12-10T06:59:51;41.85;;;25.25;;
48487;SDS011;34289;48.572;13.378;2022-12-10T07:02:17;33.40;;;23.35;;
48487;SDS011;34289;48.572;13.378;2022-12-10T07:04:43;34.20;;;22.83;;
48487;SDS011;34289;48.572;13.378;2022-12-10T07:07:08;35.47;;;23.75;;
48487;SDS011;34289;48.572;13.378;2022-12-10T07:09:34;35.53;;;23.73;;
48487;SDS011;34289;48.572;13.378;2022-12-10T07:11:59;38.55;;;23.98;;
48487;SDS011;34289;48.572;13.378;2022-12-10T07:14:25;44.80;;;25.77;;
48487;SDS011;34289;48.572;13.378;2022-12-10T07:16:51;37.60;;;24.10;;
48487;SDS011;34289;48.572;13.378;2022-12-10T07:19:16;39.83;;;23.92;;
48487;SDS011;34289;48.572;13.378;2022-12-10T07:21:42;38.42;;;24.27;;
48487;SDS011;34289;48.572;13.378;2022-12-10T07:24:16;41.13;;;27.52;;
48487;SDS011;34289;48.572;13.378;2022-12-10T07:26:43;39.03;;;24.55;;
48487;SDS011;34289;48.572;13.378;2022-12-10T07:29:12;35.70;;;23.88;;
48487;SDS011;34289;48.572;13.378;2022-12-10T07:31:42;34.53;;;22.70;;
48487;SDS011;34289;48.572;13.378;2022-12-10T07:34:09;40.88;;;24.20;;
48487;SDS011;34289;48.572;13.378;2022-12-10T07:36:35;40.80;;;26.15;;
48487;SDS011;34289;48.572;13.378;2022-12-10T07:39:04;39.33;;;25.02;;
48487;SDS011;34289;48.572;13.378;2022-12-10T07:41:30;39.35;;;24.00;;
48487;SDS011;34289;48.572;13.378;2022-12-10T07:43:56;37.75;;;25.95;;
48487;SDS011;34289;48.572;13.378;2022-12-10T07:46:23;38.78;;;25.10;;
48487;SDS011;34289;48.572;13.378;2022-12-10T07:48:54;41.70;;;24.50;;
48487;SDS011;34289;48.572;13.378;2022-12-10T07:51:23;35.00;;;22.90;;
48487;SDS011;34289;48.572;13.378;2022-12-10T07:53:51;35.88;;;24.08;;
48487;SDS011;34289;48.572;13.378;2022-12-10T07:56:18;36.33;;;23.60;;
48487;SDS011;34289;48.572;13.378;2022-12-10T07:58:44;40.38;;;25.60;;
48487;SDS011;34289;48.572;13.378;2022-12-10T08:01:14;36.50;;;23.90;;
48487;SDS011;34289;48.572;13.378;2022-12-10T08:03:41;37.53;;;24.50;;
48487;SDS011;34289;48.572;13.378;2022-12-10T08:06:11;39.50;;;26.02;;
48487;SDS011;34289;48.572;13.378;2022-12-10T08:08:39;41.88;;;25.73;;
48487;SDS011;34289;48.572;13.378;2022-12-10T08:11:06;39.20;;;24.70;;
48487;SDS011;34289;48.572;13.378;2022-12-10T08:13:32;41.50;;;27.10;;
48487;SDS011;34289;48.572;13.378;2022-12-10T08:16:00;41.28;;;27.27;;
48487;SDS011;34289;48.572;13.378;2022-12-10T08:18:27;46.13;;;29.10;;
48487;SDS011;34289;48.572;13.378;2022-12-10T08:20:53;44.78;;;27.73;;
48487;SDS011;34289;48.572;13.378;2022-12-10T08:23:19;43.65;;;28.08;;
48487;SDS011;34289;48.572;13.378;2022-12-10T08:25:44;55.67;;;31.42;;
48487;SDS011;34289;48.572;13.378;2022-12-10T08:28:10;41.72;;;27.38;;
48487;SDS011;34289;48.572;13.378;2022-12-10T08:30:36;45.05;;;27.30;;
48487;SDS011;34289;48.572;13.378;2022-12-10T08:33:01;41.75;;;24.50;;
48487;SDS011;34289;48.572;13.378;2022-12-10T08:35:27;41.70;;;26.77;;
48487;SDS011;34289;48.572;13.378;2022-12-10T08:37:53;42.70;;;26.67;;
48487;SDS011;34289;48.572;13.378;2022-12-10T08:40:19;49.03;;;27.50;;
48487;SDS011;34289;48.572;13.378;2022-12-10T08:42:44;45.42;;;26.92;;
48487;SDS011;34289;48.572;13.378;2022-12-10T08:45:10;43.17;;;26.77;;
48487;SDS011;34289;48.572;13.378;2022-12-10T08:47:35;39.42;;;26.80;;
48487;SDS011;34289;48.572;13.378;2022-12-10T08:50:01;40.35;;;27.38;;
48487;SDS011;34289;48.572;13.378;2022-12-10T08:52:27;35.70;;;24.48;;
48487;SDS011;34289;48.572;13.378;2022-12-10T08:54:54;38.13;;;25.60;;
48487;SDS011;34289;48.572;13.378;2022-12-10T08:57:20;35.78;;;23.83;;
48487;SDS011;34289;48.572;13.378;2022-12-10T08:59:45;41.47;;;24.65;;
48487;SDS011;34289;48.572;13.378;2022-12-10T09:02:11;40.50;;;26.65;;
48487;SDS011;34289;48.572;13.378;2022-12-10T09:04:36;39.58;;;25.27;;
48487;SDS011;34289;48.572;13.378;2022-12-10T09:07:04;38.22;;;25.60;;
48487;SDS011;34289;48.572;13.378;2022-12-10T09:09:30;42.72;;;26.08;;
48487;SDS011;34289;48.572;13.378;2022-12-10T09:11:56;42.90;;;24.92;;
48487;SDS011;34289;48.572;13.378;2022-12-10T09:14:22;38.30;;;25.77;;
48487;SDS011;34289;48.572;13.378;2022-12-10T09:16:48;43.20;;;27.27;;
48487;SDS011;34289;48.572;13.378;2022-12-10T09:19:14;44.92;;;26.60;;
48487;SDS011;34289;48.572;13.378;2022-12-10T09:21:40;40.20;;;26.63;;
48487;SDS011;34289;48.572;13.378;2022-12-10T09:24:05;38.97;;;25.83;;
48487;SDS011;34289;48.572;13.378;2022-12-10T09:26:31;38.65;;;26.13;;
48487;SDS011;34289;48.572;13.378;2022-12-10T09:28:58;62.05;;;39.92;;
48487;SDS011;34289;48.572;13.378;2022-12-10T09:31:27;41.80;;;29.15;;
48487;SDS011;34289;48.572;13.378;2022-12-10T09:33:53;43.00;;;27.33;;
48487;SDS011;34289;48.572;13.378;2022-12-10T09:36:19;38.80;;;25.60;;
48487;SDS011;34289;48.572;13.378;2022-12-10T09:38:45;40.47;;;25.15;;
48487;SDS011;34289;48.572;13.378;2022-12-10T09:46:48;37.10;;;23.52;;
48487;SDS011;34289;48.572;13.378;2022-12-10T09:51:49;37.00;;;24.48;;
48487;SDS011;34289;48.572;13.378;2022-12-10T09:56:50;43.25;;;25.10;;
48487;SDS011;34289;48.572;13.378;2022-12-10T10:07:32;41.38;;;25.50;;
48487;SDS011;34289;48.572;13.378;2022-12-10T10:10:03;42.28;;;25.35;;
48487;SDS011;34289;48.572;13.378;2022-12-10T10:12:31;43.03;;;26.15;;
48487;SDS011;34289;48.572;13.378;2022-12-10T10:14:59;44.13;;;27.17;;
48487;SDS011;34289;48.572;13.378;2022-12-10T10:17:35;40.97;;;26.30;;
48487;SDS011;34289;48.572;13.378;2022-12-10T10:20:02;36.15;;;25.73;;
48487;SDS011;34289;48.572;13.378;2022-12-10T10:22:28;41.42;;;25.65;;
48487;SDS011;34289;48.572;13.378;2022-12-10T10:24:55;42.47;;;27.17;;
48487;SDS011;34289;48.572;13.378;2022-12-10T10:27:25;39.63;;;26.17;;
48487;SDS011;34289;48.572;13.378;2022-12-10T10:29:54;40.72;;;27.20;;
48487;SDS011;34289;48.572;13.378;2022-12-10T10:32:22;42.33;;;26.27;;
48487;SDS011;34289;48.572;13.378;2022-12-10T10:34:54;41.55;;;27.23;;
48487;SDS011;34289;48.572;13.378;2022-12-10T10:37:24;41.65;;;25.25;;
48487;SDS011;34289;48.572;13.378;2022-12-10T10:40:00;42.75;;;25.70;;
48487;SDS011;34289;48.572;13.378;2022-12-10T10:45:06;38.13;;;25.63;;
48487;SDS011;34289;48.572;13.378;2022-12-10T10:59:38;39.22;;;24.63;;
48487;SDS011;34289;48.572;13.378;2022-12-10T11:01:54;39.47;;;25.88;;
48487;SDS011;34289;48.572;13.378;2022-12-10T11:07:04;41.28;;;26.10;;
48487;SDS011;34289;48.572;13.378;2022-12-10T11:09:36;38.03;;;25.63;;
48487;SDS011;34289;48.572;13.378;2022-12-10T11:12:06;37.25;;;24.83;;
48487;SDS011;34289;48.572;13.378;2022-12-10T11:22:51;39.00;;;25.63;;
48487;SDS011;34289;48.572;13.378;2022-12-10T11:25:19;42.27;;;26.80;;
48487;SDS011;34289;48.572;13.378;2022-12-10T11:27:54;45.63;;;27.95;;
48487;SDS011;34289;48.572;13.378;2022-12-10T11:31:00;37.78;;;25.40;;
48487;SDS011;34289;48.572;13.378;2022-12-10T11:33:48;36.78;;;25.48;;
48487;SDS011;34289;48.572;13.378;2022-12-10T11:36:47;39.63;;;26.17;;
48487;SDS011;34289;48.572;13.378;2022-12-10T11:42:08;37.85;;;24.00;;
48487;SDS011;34289;48.572;13.378;2022-12-10T11:45:07;39.38;;;24.02;;
48487;SDS011;34289;48.572;13.378;2022-12-10T11:50:38;36.88;;;25.42;;
48487;SDS011;34289;48.572;13.378;2022-12-10T11:53:15;41.50;;;25.95;;
48487;SDS011;34289;48.572;13.378;2022-12-10T12:18:05;30.70;;;22.65;;
48487;SDS011;34289;48.572;13.378;2022-12-10T12:20:43;34.08;;;23.67;;
48487;SDS011;34289;48.572;13.378;2022-12-10T12:23:31;31.70;;;21.95;;
48487;SDS011;34289;48.572;13.378;2022-12-10T12:26:13;30.75;;;21.73;;
48487;SDS011;34289;48.572;13.378;2022-12-10T12:31:47;35.55;;;22.75;;
48487;SDS011;34289;48.572;13.378;2022-12-10T12:34:37;34.58;;;21.88;;
48487;SDS011;34289;48.572;13.378;2022-12-10T12:37:24;32.53;;;21.30;;
48487;SDS011;34289;48.572;13.378;2022-12-10T12:45:14;35.85;;;24.27;;
48487;SDS011;34289;48.572;13.378;2022-12-10T12:47:53;32.65;;;22.40;;
48487;SDS011;34289;48.572;13.378;2022-12-10T12:52:58;32.33;;;22.45;;
48487;SDS011;34289;48.572;13.378;2022-12-10T12:58:11;38.72;;;25.55;;
48487;SDS011;34289;48.572;13.378;2022-12-10T13:00:49;36.85;;;23.63;;
48487;SDS011;34289;48.572;13.378;2022-12-10T13:11:30;57.17;;;34.35;;
48487;SDS011;34289;48.572;13.378;2022-12-10T13:37:53;35.90;;;22.67;;
48487;SDS011;34289;48.572;13.378;2022-12-10T13:43:35;34.50;;;23.77;;
48487;SDS011;34289;48.572;13.378;2022-12-10T13:46:24;35.67;;;21.35;;
48487;SDS011;34289;48.572;13.378;2022-12-10T13:48:54;39.50;;;23.67;;
48487;SDS011;34289;48.572;13.378;2022-12-10T13:56:56;34.28;;;23.02;;
48487;SDS011;34289;48.572;13.378;2022-12-10T14:05:04;32.92;;;22.65;;
48487;SDS011;34289;48.572;13.378;2022-12-10T14:10:27;37.13;;;25.35;;
48487;SDS011;34289;48.572;13.378;2022-12-10T14:12:56;46.13;;;27.00;;
48487;SDS011;34289;48.572;13.378;2022-12-10T14:15:23;47.92;;;26.02;;
48487;SDS011;34289;48.572;13.378;2022-12-10T14:17:53;48.70;;;28.08;;
48487;SDS011;34289;48.572;13.378;2022-12-10T14:20:26;50.20;;;29.85;;
48487;SDS011;34289;48.572;13.378;2022-12-10T14:23:02;48.22;;;31.45;;
48487;SDS011;34289;48.572;13.378;2022-12-10T14:25:48;47.28;;;29.20;;
48487;SDS011;34289;48.572;13.378;2022-12-10T14:28:17;45.00;;;26.98;;
48487;SDS011;34289;48.572;13.378;2022-12-10T14:30:44;39.40;;;25.90;;
48487;SDS011;34289;48.572;13.378;2022-12-10T14:33:12;41.08;;;26.88;;
48487;SDS011;34289;48.572;13.378;2022-12-10T14:35:41;47.67;;;29.00;;
48487;SDS011;34289;48.572;13.378;2022-12-10T14:38:12;64.75;;;36.17;;
48487;SDS011;34289;48.572;13.378;2022-12-10T14:40:42;94.80;;;45.38;;
48487;SDS011;34289;48.572;13.378;2022-12-10T14:43:11;64.60;;;33.58;;
48487;SDS011;34289;48.572;13.378;2022-12-10T14:46:16;45.10;;;28.30;;
48487;SDS011;34289;48.572;13.378;2022-12-10T14:48:52;48.40;;;28.58;;
48487;SDS011;34289;48.572;13.378;2022-12-10T14:51:20;45.70;;;26.92;;
48487;SDS011;34289;48.572;13.378;2022-12-10T14:53:49;46.08;;;27.38;;
48487;SDS011;34289;48.572;13.378;2022-12-10T14:56:24;50.00;;;29.55;;
48487;SDS011;34289;48.572;13.378;2022-12-10T14:59:04;49.30;;;28.40;;
48487;SDS011;34289;48.572;13.378;2022-12-10T15:01:45;46.72;;;28.63;;
48487;SDS011;34289;48.572;13.378;2022-12-10T15:04:15;49.35;;;28.85;;
48487;SDS011;34289;48.572;13.378;2022-12-10T15:06:42;46.90;;;28.30;;
48487;SDS011;34289;48.572;13.378;2022-12-10T15:09:12;46.05;;;28.58;;
48487;SDS011;34289;48.572;13.378;2022-12-10T15:11:43;44.70;;;27.77;;
48487;SDS011;34289;48.572;13.378;2022-12-10T15:14:19;52.47;;;29.25;;
48487;SDS011;34289;48.572;13.378;2022-12-10T15:16:46;52.10;;;28.02;;
48487;SDS011;34289;48.572;13.378;2022-12-10T15:19:17;43.13;;;27.45;;
48487;SDS011;34289;48.572;13.378;2022-12-10T15:21:49;44.00;;;27.42;;
48487;SDS011;34289;48.572;13.378;2022-12-10T15:26:49;43.42;;;27.25;;
48487;SDS011;34289;48.572;13.378;2022-12-10T15:31:48;45.72;;;27.95;;
48487;SDS011;34289;48.572;13.378;2022-12-10T15:34:15;48.03;;;27.60;;
48487;SDS011;34289;48.572;13.378;2022-12-10T15:36:43;46.67;;;29.85;;
48487;SDS011;34289;48.572;13.378;2022-12-10T15:44:31;58.28;;;35.42;;
48487;SDS011;34289;48.572;13.378;2022-12-10T15:49:46;51.25;;;32.50;;
48487;SDS011;34289;48.572;13.378;2022-12-10T15:52:31;48.03;;;30.17;;
48487;SDS011;34289;48.572;13.378;2022-12-10T15:54:57;46.03;;;29.33;;
48487;SDS011;34289;48.572;13.378;2022-12-10T15:59:54;58.53;;;32.58;;
48487;SDS011;34289;48.572;13.378;2022-12-10T16:05:09;96.22;;;58.97;;
48487;SDS011;34289;48.572;13.378;2022-12-10T16:07:36;62.65;;;38.70;;
48487;SDS011;34289;48.572;13.378;2022-12-10T16:10:02;57.13;;;34.10;;
48487;SDS011;34289;48.572;13.378;2022-12-10T16:12:29;101.38;;;56.10;;
48487;SDS011;34289;48.572;13.378;2022-12-10T16:14:56;66.55;;;43.85;;
48487;SDS011;34289;48.572;13.378;2022-12-10T16:17:25;87.82;;;53.17;;
48487;SDS011;34289;48.572;13.378;2022-12-10T16:19:52;52.70;;;31.23;;
48487;SDS011;34289;48.572;13.378;2022-12-10T16:22:21;78.50;;;49.53;;
48487;SDS011;34289;48.572;13.378;2022-12-10T16:24:46;62.45;;;37.28;;
48487;SDS011;34289;48.572;13.378;2022-12-10T16:27:12;95.22;;;52.03;;
48487;SDS011;34289;48.572;13.378;2022-12-10T16:29:40;51.92;;;33.65;;
48487;SDS011;34289;48.572;13.378;2022-12-10T16:32:08;140.98;;;76.18;;
48487;SDS011;34289;48.572;13.378;2022-12-10T16:34:37;80.43;;;46.00;;
48487;SDS011;34289;48.572;13.378;2022-12-10T16:37:03;99.75;;;54.35;;
48487;SDS011;34289;48.572;13.378;2022-12-10T16:39:30;97.88;;;58.67;;
48487;SDS011;34289;48.572;13.378;2022-12-10T16:41:56;66.20;;;40.30;;
48487;SDS011;34289;48.572;13.378;2022-12-10T16:44:21;72.78;;;44.08;;
48487;SDS011;34289;48.572;13.378;2022-12-10T16:46:47;88.18;;;53.95;;
48487;SDS011;34289;48.572;13.378;2022-12-10T16:49:13;64.55;;;38.15;;
48487;SDS011;34289;48.572;13.378;2022-12-10T16:51:38;70.30;;;39.40;;
48487;SDS011;34289;48.572;13.378;2022-12-10T16:54:07;76.40;;;48.30;;
48487;SDS011;34289;48.572;13.378;2022-12-10T16:56:35;68.55;;;38.63;;
48487;SDS011;34289;48.572;13.378;2022-12-10T16:59:00;62.78;;;35.47;;
48487;SDS011;34289;48.572;13.378;2022-12-10T17:01:26;70.88;;;40.67;;
48487;SDS011;34289;48.572;13.378;2022-12-10T17:03:54;73.82;;;40.03;;
48487;SDS011;34289;48.572;13.378;2022-12-10T17:06:20;58.10;;;32.85;;
48487;SDS011;34289;48.572;13.378;2022-12-10T17:08:46;65.38;;;35.85;;
48487;SDS011;34289;48.572;13.378;2022-12-10T17:11:26;58.83;;;36.40;;
48487;SDS011;34289;48.572;13.378;2022-12-10T17:14:32;56.42;;;32.67;;